createdAt,value
2018-10-21T00:01:28.057Z,11.20
2018-10-21T00:03:57.100Z,11.30
2018-10-21T00:06:26.052Z,11.10
2018-10-21T00:08:55.074Z,10.80
2018-10-21T00:11:23.988Z,10.70
2018-10-21T00:13:53.056Z,10.70
2018-10-21T00:16:22.080Z,10.60
2018-10-21T00:18:51.075Z,10.50
2018-10-21T00:21:20.081Z,10.50
2018-10-21T00:23:49.030Z,10.40
2018-10-21T00:26:18.059Z,10.40
2018-10-21T00:28:47.057Z,10.40
2018-10-21T00:31:16.247Z,10.50
2018-10-21T00:33:45.248Z,10.50
2018-10-21T00:36:14.244Z,10.70
2018-10-21T00:38:43.228Z,10.60
2018-10-21T00:41:12.376Z,10.50
2018-10-21T00:43:41.376Z,10.50
2018-10-21T00:46:10.333Z,10.50
2018-10-21T00:48:39.312Z,10.60
2018-10-21T00:51:08.328Z,10.90
2018-10-21T00:53:37.339Z,10.70
2018-10-21T00:56:06.298Z,10.50
2018-10-21T00:58:35.299Z,10.50
2018-10-21T01:01:04.416Z,10.60
2018-10-21T01:03:33.477Z,11.10
2018-10-21T01:06:02.680Z,11.20
2018-10-21T01:08:32.633Z,11.10
2018-10-21T01:11:01.529Z,10.90
2018-10-21T01:13:30.462Z,10.80
2018-10-21T01:15:59.436Z,10.70
2018-10-21T01:18:28.579Z,10.60
2018-10-21T01:20:57.627Z,10.60
2018-10-21T01:23:26.640Z,10.50
2018-10-21T01:25:55.606Z,10.50
2018-10-21T01:28:24.548Z,10.50
2018-10-21T01:30:53.532Z,10.60
2018-10-21T01:33:22.497Z,10.50
2018-10-21T01:35:51.474Z,10.50
2018-10-21T01:38:20.489Z,10.70
2018-10-21T01:40:50.691Z,10.70
2018-10-21T01:43:20.891Z,10.60
2018-10-21T01:45:50.011Z,10.50
2018-10-21T01:48:20.008Z,10.50
2018-10-21T01:50:49.018Z,10.50
2018-10-21T01:53:18.702Z,10.40
2018-10-21T01:55:47.647Z,10.40
2018-10-21T01:58:16.606Z,10.40
2018-10-21T02:00:45.734Z,10.30
2018-10-21T02:03:14.820Z,10.30
2018-10-21T02:05:44.499Z,10.40
2018-10-21T02:08:13.466Z,10.30
2018-10-21T02:10:42.480Z,10.40
2018-10-21T02:13:11.511Z,10.50
2018-10-21T02:15:40.440Z,10.50
2018-10-21T02:18:09.433Z,10.80
2018-10-21T02:20:38.439Z,10.70
2018-10-21T02:23:07.404Z,10.60
2018-10-21T02:25:36.442Z,10.50
2018-10-21T02:28:05.476Z,10.50
2018-10-21T02:30:34.426Z,10.50
2018-10-21T02:33:03.521Z,10.60
2018-10-21T02:35:32.419Z,10.70
2018-10-21T02:38:01.438Z,11.00
2018-10-21T02:41:45.988Z,11.30
2018-10-21T02:44:17.165Z,11.10
2018-10-21T02:46:46.860Z,10.70
2018-10-21T02:49:16.526Z,10.70
2018-10-21T02:51:50.801Z,10.70
2018-10-21T02:54:30.459Z,10.70
2018-10-21T02:56:59.459Z,10.70
2018-10-21T02:59:28.459Z,10.60
2018-10-21T03:01:57.439Z,10.50
2018-10-21T03:04:26.397Z,10.40
2018-10-21T03:06:55.374Z,10.60
2018-10-21T03:09:24.341Z,10.70
2018-10-21T03:12:03.051Z,10.50
2018-10-21T03:14:31.996Z,10.50
2018-10-21T03:17:00.989Z,10.40
2018-10-21T03:19:30.052Z,10.40
2018-10-21T03:21:59.577Z,10.40
2018-10-21T03:24:29.412Z,10.40
2018-10-21T03:26:58.411Z,10.50
2018-10-21T03:29:27.507Z,10.50
2018-10-21T03:31:56.468Z,10.50
2018-10-21T03:34:25.416Z,10.50
2018-10-21T03:36:54.389Z,10.40
2018-10-21T03:39:23.372Z,10.40
2018-10-21T03:41:52.343Z,10.50
2018-10-21T03:44:21.288Z,10.40
2018-10-21T03:46:50.241Z,10.50
2018-10-21T03:49:19.188Z,10.40
2018-10-21T03:51:48.155Z,10.40
2018-10-21T03:54:17.139Z,10.40
2018-10-21T03:56:46.467Z,10.50
2018-10-21T03:59:15.456Z,10.50
2018-10-21T04:01:44.477Z,10.50
2018-10-21T04:04:13.415Z,10.50
2018-10-21T04:06:42.394Z,10.40
2018-10-21T04:09:11.364Z,10.40
2018-10-21T04:11:40.341Z,10.30
2018-10-21T04:14:09.345Z,10.40
2018-10-21T04:16:39.582Z,10.50
2018-10-21T04:19:08.584Z,10.40
2018-10-21T04:21:38.910Z,10.40
2018-10-21T04:24:08.364Z,10.40
2018-10-21T04:26:37.298Z,10.30
2018-10-21T04:29:06.283Z,10.50
2018-10-21T04:31:35.234Z,10.50
2018-10-21T04:34:04.301Z,10.40
2018-10-21T04:36:34.210Z,10.40
2018-10-21T04:40:16.242Z,10.50
2018-10-21T04:42:45.791Z,10.50
2018-10-21T04:45:17.190Z,10.30
2018-10-21T04:47:46.152Z,10.20
2018-10-21T04:50:15.244Z,10.30
2018-10-21T04:52:44.213Z,10.40
2018-10-21T04:55:15.284Z,10.30
2018-10-21T04:57:45.433Z,10.20
2018-10-21T05:00:16.684Z,10.20
2018-10-21T05:02:45.641Z,10.10
2018-10-21T05:05:15.346Z,10.10
2018-10-21T05:07:44.316Z,10.10
2018-10-21T05:10:23.786Z,10.00
2018-10-21T05:12:52.789Z,10.00
2018-10-21T05:15:22.783Z,9.90
2018-10-21T05:17:51.937Z,10.20
2018-10-21T05:20:20.932Z,10.20
2018-10-21T05:22:51.275Z,9.90
2018-10-21T05:25:21.329Z,9.80
2018-10-21T05:27:50.295Z,9.60
2018-10-21T05:30:19.288Z,9.50
2018-10-21T05:32:48.251Z,9.50
2018-10-21T05:35:18.227Z,9.50
2018-10-21T05:37:48.024Z,9.50
2018-10-21T05:40:18.688Z,9.50
2018-10-21T05:42:47.853Z,9.40
2018-10-21T05:45:16.828Z,9.40
2018-10-21T05:47:46.870Z,9.50
2018-10-21T05:50:16.364Z,9.60
2018-10-21T05:52:46.372Z,9.80
2018-10-21T05:55:15.889Z,9.70
2018-10-21T05:57:45.012Z,9.70
2018-10-21T06:00:17.646Z,9.50
2018-10-21T06:02:46.642Z,9.30
2018-10-21T06:05:44.032Z,9.40
2018-10-21T06:08:13.010Z,9.60
2018-10-21T06:10:42.624Z,9.60
2018-10-21T06:13:12.744Z,9.50
2018-10-21T06:15:41.878Z,9.90
2018-10-21T06:18:18.036Z,10.20
2018-10-21T06:20:49.305Z,10.20
2018-10-21T06:23:18.238Z,10.50
2018-10-21T06:25:47.330Z,10.80
2018-10-21T06:28:16.288Z,11.10
2018-10-21T06:30:45.242Z,11.20
2018-10-21T06:33:14.279Z,11.20
2018-10-21T06:35:43.276Z,11.20
2018-10-21T06:38:12.251Z,11.30
2018-10-21T06:40:41.263Z,11.50
2018-10-21T06:43:10.693Z,11.90
2018-10-21T06:45:40.316Z,12.40
2018-10-21T06:48:09.285Z,12.80
2018-10-21T06:50:38.272Z,12.90
2018-10-21T06:53:07.256Z,12.80
2018-10-21T06:55:36.257Z,12.50
2018-10-21T06:58:05.523Z,12.30
2018-10-21T07:00:34.529Z,12.10
2018-10-21T07:03:03.508Z,12.00
2018-10-21T07:06:18.864Z,12.00
2018-10-21T07:08:48.644Z,11.80
2018-10-21T07:11:17.632Z,11.70
2018-10-21T07:13:46.574Z,11.40
2018-10-21T07:16:15.882Z,11.60
2018-10-21T07:18:45.777Z,11.70
2018-10-21T07:21:15.040Z,11.70
2018-10-21T07:23:44.139Z,11.50
2018-10-21T07:26:13.109Z,11.40
2018-10-21T07:28:42.081Z,11.20
2018-10-21T07:31:11.010Z,11.40
2018-10-21T07:33:39.968Z,11.50
2018-10-21T07:36:08.971Z,11.60
2018-10-21T07:38:37.950Z,11.70
2018-10-21T07:41:06.933Z,11.80
2018-10-21T07:43:35.912Z,11.90
2018-10-21T07:46:04.947Z,12.00
2018-10-21T07:48:33.904Z,12.00
2018-10-21T07:51:02.847Z,11.90
2018-10-21T07:53:31.894Z,11.60
2018-10-21T07:56:04.584Z,11.60
2018-10-21T07:58:33.648Z,11.40
2018-10-21T08:01:02.731Z,11.50
2018-10-21T08:03:32.708Z,11.70
2018-10-21T08:06:31.034Z,11.90
2018-10-21T08:09:00.041Z,12.00
2018-10-21T08:11:29.042Z,12.00
2018-10-21T08:13:58.719Z,12.00
2018-10-21T08:16:27.689Z,12.00
2018-10-21T08:18:56.697Z,12.00
2018-10-21T08:21:25.724Z,12.10
2018-10-21T08:23:54.772Z,12.20
2018-10-21T08:26:23.743Z,12.20
2018-10-21T08:28:52.763Z,12.30
2018-10-21T08:31:21.722Z,12.20
2018-10-21T08:33:51.269Z,12.00
2018-10-21T08:36:21.572Z,12.30
2018-10-21T08:38:50.546Z,12.40
2018-10-21T08:41:19.490Z,12.30
2018-10-21T08:43:48.667Z,12.40
2018-10-21T08:46:17.792Z,12.40
2018-10-21T08:48:46.761Z,12.40
2018-10-21T08:51:15.826Z,12.20
2018-10-21T08:53:44.865Z,12.30
2018-10-21T08:56:15.600Z,12.20
2018-10-21T08:58:46.285Z,12.20
2018-10-21T09:01:18.073Z,12.10
2018-10-21T09:03:46.944Z,12.00
2018-10-21T09:06:16.104Z,12.10
2018-10-21T09:08:45.056Z,12.20
2018-10-21T09:11:14.026Z,12.50
2018-10-21T09:13:43.018Z,12.60
2018-10-21T09:16:12.087Z,12.60
2018-10-21T09:18:41.102Z,12.90
2018-10-21T09:21:11.255Z,12.90
2018-10-21T09:23:40.229Z,12.90
2018-10-21T09:26:09.322Z,13.00
2018-10-21T09:28:38.271Z,12.90
2018-10-21T09:31:07.335Z,12.90
2018-10-21T09:33:36.298Z,12.90
2018-10-21T09:36:05.388Z,13.00
2018-10-21T09:38:34.799Z,13.10
2018-10-21T09:41:03.780Z,13.20
2018-10-21T09:43:32.722Z,13.20
2018-10-21T09:46:01.719Z,13.40
2018-10-21T09:48:30.715Z,13.50
2018-10-21T09:50:59.751Z,13.60
2018-10-21T09:53:28.712Z,13.60
2018-10-21T09:55:58.753Z,13.60
2018-10-21T09:58:27.731Z,13.80
2018-10-21T10:01:03.323Z,14.00
2018-10-21T10:03:32.258Z,13.70
2018-10-21T10:06:01.236Z,13.90
2018-10-21T10:08:30.188Z,14.20
2018-10-21T10:10:59.167Z,14.30
2018-10-21T10:13:28.130Z,14.50
2018-10-21T10:15:57.189Z,14.50
2018-10-21T10:18:26.892Z,14.40
2018-10-21T10:20:57.028Z,14.50
2018-10-21T10:23:26.018Z,14.50
2018-10-21T10:25:54.994Z,14.40
2018-10-21T10:28:23.940Z,14.40
2018-10-21T10:30:52.908Z,14.40
2018-10-21T10:33:21.894Z,14.40
2018-10-21T10:35:50.888Z,14.30
2018-10-21T10:38:19.856Z,14.20
2018-10-21T10:40:50.281Z,14.00
2018-10-21T10:43:19.297Z,14.00
2018-10-21T10:45:49.031Z,14.10
2018-10-21T10:48:18.006Z,14.20
2018-10-21T10:50:46.972Z,14.20
2018-10-21T10:53:16.044Z,14.20
2018-10-21T10:55:47.136Z,14.30
2018-10-21T10:58:19.111Z,14.30
2018-10-21T11:00:48.055Z,14.30
2018-10-21T11:03:18.486Z,14.40
2018-10-21T11:05:47.438Z,14.40
2018-10-21T11:08:16.460Z,14.50
2018-10-21T11:10:45.462Z,14.60
2018-10-21T11:13:14.510Z,14.70
2018-10-21T11:15:44.432Z,14.80
2018-10-21T11:18:15.113Z,14.80
2018-10-21T11:20:44.074Z,15.00
2018-10-21T11:23:13.474Z,15.00
2018-10-21T11:25:42.452Z,15.00
2018-10-21T11:28:11.561Z,15.00
2018-10-21T11:30:41.733Z,15.00
2018-10-21T11:33:10.739Z,15.00
2018-10-21T11:35:39.680Z,14.90
2018-10-21T11:38:08.679Z,14.80
2018-10-21T11:40:37.679Z,14.80
2018-10-21T11:43:06.736Z,14.70
2018-10-21T11:45:35.809Z,14.60
2018-10-21T11:48:05.319Z,14.50
2018-10-21T11:50:34.967Z,14.60
2018-10-21T11:53:05.576Z,14.60
2018-10-21T11:55:38.382Z,14.60
2018-10-21T11:58:09.714Z,14.60
2018-10-21T12:00:38.946Z,14.60
2018-10-21T12:03:08.522Z,14.60
2018-10-21T12:05:37.572Z,14.70
2018-10-21T12:08:06.581Z,14.70
2018-10-21T12:10:35.616Z,14.70
2018-10-21T12:13:05.043Z,14.80
2018-10-21T12:15:34.512Z,14.90
2018-10-21T12:18:03.564Z,14.90
2018-10-21T12:20:32.645Z,14.90
2018-10-21T12:23:01.680Z,15.00
2018-10-21T12:25:31.230Z,15.00
2018-10-21T12:28:00.276Z,15.00
2018-10-21T12:30:29.355Z,15.00
2018-10-21T12:32:58.364Z,14.90
2018-10-21T12:35:27.436Z,14.90
2018-10-21T12:37:56.510Z,15.00
2018-10-21T12:40:25.529Z,15.10
2018-10-21T12:42:54.537Z,15.20
2018-10-21T12:45:23.559Z,15.20
2018-10-21T12:47:53.237Z,15.10
2018-10-21T12:50:22.199Z,15.20
2018-10-21T12:52:51.181Z,15.30
2018-10-21T12:55:20.190Z,15.30
2018-10-21T12:57:49.123Z,15.40
2018-10-21T13:00:18.128Z,15.40
2018-10-21T13:02:47.112Z,15.40
2018-10-21T13:05:16.084Z,15.40
2018-10-21T13:07:45.022Z,15.30
2018-10-21T13:10:14.067Z,15.30
2018-10-21T13:12:42.965Z,15.30
2018-10-21T13:15:11.956Z,15.30
2018-10-21T13:17:41.451Z,15.50
2018-10-21T13:20:10.422Z,15.50
2018-10-21T13:22:39.374Z,15.50
2018-10-21T13:25:08.441Z,15.60
2018-10-21T13:27:37.445Z,15.50
2018-10-21T13:30:07.338Z,15.50
2018-10-21T13:32:37.167Z,15.60
2018-10-21T13:35:06.512Z,15.70
2018-10-21T13:37:36.777Z,15.70
2018-10-21T13:40:06.218Z,15.70
2018-10-21T13:42:39.239Z,15.70
2018-10-21T13:45:11.961Z,15.80
2018-10-21T13:47:43.160Z,15.90
2018-10-21T13:50:13.042Z,15.80
2018-10-21T13:52:42.145Z,15.80
2018-10-21T13:55:11.248Z,15.70
2018-10-21T13:57:40.267Z,15.70
2018-10-21T14:00:09.534Z,15.60
2018-10-21T14:02:38.604Z,15.50
2018-10-21T14:05:08.125Z,15.40
2018-10-21T14:07:37.127Z,15.30
2018-10-21T14:10:06.135Z,15.40
2018-10-21T14:12:35.093Z,15.60
2018-10-21T14:15:04.178Z,15.60
2018-10-21T14:17:33.191Z,15.60
2018-10-21T14:20:02.201Z,15.60
2018-10-21T14:22:31.420Z,15.60
2018-10-21T14:25:00.510Z,15.50
2018-10-21T14:27:30.807Z,15.50
2018-10-21T14:30:00.193Z,15.50
2018-10-21T14:32:29.110Z,15.70
2018-10-21T14:34:58.065Z,15.70
2018-10-21T14:37:27.120Z,15.60
2018-10-21T14:39:56.061Z,15.50
2018-10-21T14:42:25.131Z,15.50
2018-10-21T14:44:54.101Z,15.50
2018-10-21T14:47:23.151Z,15.50
2018-10-21T14:49:52.099Z,15.50
2018-10-21T14:52:21.136Z,15.50
2018-10-21T14:54:50.125Z,15.50
2018-10-21T14:57:19.175Z,15.50
2018-10-21T14:59:48.201Z,15.50
2018-10-21T15:02:17.206Z,15.50
2018-10-21T15:04:46.120Z,15.40
2018-10-21T15:07:16.143Z,15.30
2018-10-21T15:09:45.321Z,15.20
2018-10-21T15:12:14.314Z,15.20
2018-10-21T15:14:43.282Z,15.10
2018-10-21T15:17:12.882Z,15.10
2018-10-21T15:19:41.906Z,15.00
2018-10-21T15:22:10.949Z,14.90
2018-10-21T15:24:39.965Z,14.80
2018-10-21T15:27:09.008Z,14.80
2018-10-21T15:29:37.993Z,14.70
2018-10-21T15:32:06.987Z,14.70
2018-10-21T15:34:36.349Z,14.60
2018-10-21T15:37:06.361Z,14.60
2018-10-21T15:39:35.390Z,14.50
2018-10-21T15:42:04.427Z,14.40
2018-10-21T15:44:33.423Z,14.50
2018-10-21T15:47:02.370Z,14.60
2018-10-21T15:49:32.545Z,14.40
2018-10-21T15:52:01.593Z,14.10
2018-10-21T15:54:31.158Z,13.70
2018-10-21T15:57:00.096Z,13.60
2018-10-21T15:59:29.240Z,13.60
2018-10-21T16:01:58.307Z,13.60
2018-10-21T16:04:27.212Z,13.60
2018-10-21T16:06:56.193Z,13.60
2018-10-21T16:09:25.159Z,13.60
2018-10-21T16:11:54.133Z,13.60
2018-10-21T16:14:23.684Z,13.60
2018-10-21T16:16:52.612Z,13.70
2018-10-21T16:19:21.568Z,13.80
2018-10-21T16:21:50.534Z,13.80
2018-10-21T16:24:19.567Z,13.80
2018-10-21T16:26:48.561Z,13.90
2018-10-21T16:29:17.524Z,13.80
2018-10-21T16:31:46.553Z,13.80
2018-10-21T16:34:16.030Z,13.70
2018-10-21T16:36:44.811Z,13.60
2018-10-21T16:39:13.880Z,13.40
2018-10-21T16:41:42.793Z,13.50
2018-10-21T16:44:11.784Z,13.50
2018-10-21T16:46:40.781Z,13.40
2018-10-21T16:49:09.805Z,13.30
2018-10-21T16:51:38.802Z,13.40
2018-10-21T16:54:07.826Z,13.30
2018-10-21T16:56:36.751Z,13.20
2018-10-21T16:59:05.710Z,13.20
2018-10-21T17:01:34.723Z,13.20
2018-10-21T17:04:03.692Z,13.10
2018-10-21T17:06:32.699Z,13.00
2018-10-21T17:09:01.899Z,13.00
2018-10-21T17:11:30.768Z,12.90
2018-10-21T17:13:59.780Z,12.70
2018-10-21T17:16:28.811Z,12.70
2018-10-21T17:18:57.779Z,12.70
2018-10-21T17:21:26.745Z,12.50
2018-10-21T17:23:55.719Z,12.20
2018-10-21T17:26:26.025Z,12.10
2018-10-21T17:28:55.013Z,12.00
2018-10-21T17:31:23.994Z,11.90
2018-10-21T17:33:53.077Z,12.00
2018-10-21T17:36:22.043Z,12.10
2018-10-21T17:38:51.022Z,12.10
2018-10-21T17:41:20.347Z,12.20
2018-10-21T17:43:49.282Z,12.20
2018-10-21T17:46:18.383Z,12.20
2018-10-21T17:48:47.692Z,12.10
2018-10-21T17:51:16.695Z,12.10
2018-10-21T17:53:45.651Z,12.20
2018-10-21T17:56:14.614Z,12.20
2018-10-21T17:58:45.001Z,12.30
2018-10-21T18:01:14.006Z,12.20
2018-10-21T18:03:42.964Z,12.20
2018-10-21T18:06:11.945Z,12.30
2018-10-21T18:08:40.971Z,12.20
2018-10-21T18:11:10.382Z,12.00
2018-10-21T18:13:40.236Z,12.00
2018-10-21T18:16:09.745Z,11.90
2018-10-21T18:18:38.698Z,11.80
2018-10-21T18:21:07.711Z,12.00
2018-10-21T18:23:36.667Z,12.00
2018-10-21T18:26:05.758Z,11.80
2018-10-21T18:28:34.695Z,11.60
2018-10-21T18:31:03.759Z,11.60
2018-10-21T18:33:32.690Z,11.80
2018-10-21T18:36:01.655Z,11.60
2018-10-21T18:38:30.631Z,11.30
2018-10-21T18:41:00.683Z,11.10
2018-10-21T18:43:29.537Z,11.20
2018-10-21T18:45:58.560Z,11.30
2018-10-21T18:48:28.160Z,11.30
2018-10-21T18:50:57.130Z,11.30
2018-10-21T18:53:26.145Z,11.40
2018-10-21T18:55:55.117Z,11.30
2018-10-21T18:58:24.108Z,11.30
2018-10-21T19:00:53.084Z,11.30
2018-10-21T19:03:22.113Z,11.40
2018-10-21T19:05:51.055Z,11.20
2018-10-21T19:08:20.055Z,11.20
2018-10-21T19:10:49.003Z,11.10
2018-10-21T19:13:18.118Z,11.10
2018-10-21T19:15:47.063Z,11.20
2018-10-21T19:18:16.056Z,11.00
2018-10-21T19:20:45.013Z,11.10
2018-10-21T19:23:13.998Z,11.20
2018-10-21T19:25:42.956Z,11.10
2018-10-21T19:28:11.989Z,11.00
2018-10-21T19:30:40.905Z,10.90
2018-10-21T19:33:10.008Z,10.80
2018-10-21T19:35:38.986Z,10.90
2018-10-21T19:38:08.001Z,10.80
2018-10-21T19:40:36.948Z,10.80
2018-10-21T19:43:05.969Z,10.90
2018-10-21T19:45:34.905Z,10.80
2018-10-21T19:48:04.524Z,10.60
2018-10-21T19:50:34.534Z,10.50
2018-10-21T19:53:03.497Z,10.50
2018-10-21T19:55:32.428Z,10.40
2018-10-21T19:58:01.484Z,10.50
2018-10-21T20:00:30.430Z,10.70
2018-10-21T20:02:59.395Z,10.80
2018-10-21T20:05:28.411Z,10.80
2018-10-21T20:07:57.365Z,10.70
2018-10-21T20:10:28.043Z,10.60
2018-10-21T20:12:57.004Z,10.40
2018-10-21T20:15:26.004Z,10.40
2018-10-21T20:17:56.385Z,10.30
2018-10-21T20:20:25.549Z,10.20
2018-10-21T20:22:54.506Z,10.10
2018-10-21T20:25:24.342Z,10.10
2018-10-21T20:27:53.302Z,10.10
2018-10-21T20:30:22.316Z,10.20
2018-10-21T20:32:51.407Z,10.20
2018-10-21T20:35:20.363Z,10.30
2018-10-21T20:37:49.327Z,10.30
2018-10-21T20:40:18.381Z,10.40
2018-10-21T20:42:47.353Z,10.40
2018-10-21T20:45:16.404Z,10.40
2018-10-21T20:47:45.405Z,10.30
2018-10-21T20:50:14.387Z,10.10
2018-10-21T20:52:43.358Z,10.20
2018-10-21T20:55:12.369Z,10.20
2018-10-21T20:57:41.439Z,10.40
2018-10-21T21:00:10.438Z,10.40
2018-10-21T21:02:39.325Z,10.30
2018-10-21T21:05:10.519Z,10.30
2018-10-21T21:07:39.485Z,10.10
2018-10-21T21:10:08.999Z,10.10
2018-10-21T21:12:37.933Z,10.20
2018-10-21T21:15:07.520Z,10.20
2018-10-21T21:17:36.484Z,10.10
2018-10-21T21:20:07.311Z,10.10
2018-10-21T21:22:36.305Z,10.20
2018-10-21T21:25:05.759Z,10.20
2018-10-21T21:27:34.937Z,10.20
2018-10-21T21:30:04.239Z,10.20
2018-10-21T21:32:33.193Z,10.00
2018-10-21T21:35:02.151Z,9.90
2018-10-21T21:37:31.157Z,9.80
2018-10-21T21:40:00.133Z,9.80
2018-10-21T21:42:29.106Z,9.70
2018-10-21T21:44:58.099Z,9.70
2018-10-21T21:47:27.083Z,9.80
2018-10-21T21:49:56.056Z,9.80
2018-10-21T21:52:25.031Z,9.90
2018-10-21T21:54:53.984Z,9.90
2018-10-21T21:57:22.961Z,9.90
2018-10-21T21:59:51.975Z,9.70
2018-10-21T22:02:20.962Z,9.50
2018-10-21T22:04:49.931Z,9.40
2018-10-21T22:07:18.912Z,9.40
2018-10-21T22:09:47.981Z,9.60
2018-10-21T22:12:16.995Z,9.50
2018-10-21T22:14:45.915Z,9.40
2018-10-21T22:17:14.877Z,9.70
2018-10-21T22:19:43.860Z,9.80
2018-10-21T22:22:12.895Z,9.70
2018-10-21T22:24:41.815Z,9.50
2018-10-21T22:27:10.859Z,9.30
2018-10-21T22:29:39.910Z,9.50
2018-10-21T22:32:08.905Z,9.60
2018-10-21T22:34:37.869Z,9.50
2018-10-21T22:37:07.345Z,9.60
2018-10-21T22:39:36.778Z,9.30
2018-10-21T22:42:05.811Z,9.30
2018-10-21T22:44:35.088Z,9.30
2018-10-21T22:47:04.049Z,9.30
2018-10-21T22:49:33.163Z,9.30
2018-10-21T22:52:02.289Z,9.10
2018-10-21T22:54:31.260Z,9.10
2018-10-21T22:57:00.197Z,9.00
2018-10-21T22:59:29.196Z,8.90
2018-10-21T23:01:58.156Z,9.10
2018-10-21T23:04:27.134Z,9.20
2018-10-21T23:06:56.091Z,9.20
2018-10-21T23:09:25.059Z,9.20
2018-10-21T23:11:54.025Z,9.30
2018-10-21T23:14:23.000Z,9.40
2018-10-21T23:16:52.037Z,9.60
2018-10-21T23:19:32.362Z,9.40
2018-10-21T23:22:01.299Z,9.20
2018-10-21T23:24:32.212Z,9.40
2018-10-21T23:27:01.260Z,9.30
2018-10-21T23:29:30.261Z,9.20
2018-10-21T23:31:59.215Z,9.10
2018-10-21T23:34:28.451Z,9.00
2018-10-21T23:36:57.628Z,9.10
2018-10-21T23:39:27.570Z,9.10
2018-10-21T23:41:56.918Z,9.10
2018-10-21T23:44:25.837Z,9.00
2018-10-21T23:46:55.223Z,9.00
2018-10-21T23:49:24.284Z,9.00
2018-10-21T23:51:53.268Z,9.00
2018-10-21T23:54:22.255Z,9.10
2018-10-21T23:56:51.216Z,9.10
2018-10-21T23:59:20.221Z,9.10
